createdAt,value
2018-07-17T00:01:17.248Z,99506.11
2018-07-17T00:03:51.573Z,99517.86
2018-07-17T00:06:26.021Z,99515.95
2018-07-17T00:08:58.560Z,99514.03
2018-07-17T00:11:31.159Z,99514.00
2018-07-17T00:14:03.140Z,99516.95
2018-07-17T00:16:34.359Z,99514.84
2018-07-17T00:19:06.609Z,99514.58
2018-07-17T00:21:37.791Z,99510.75
2018-07-17T00:24:20.509Z,99509.94
2018-07-17T00:26:57.592Z,99507.40
2018-07-17T00:29:30.190Z,99516.60
2018-07-17T00:32:02.857Z,99516.02
2018-07-17T00:34:35.950Z,99514.94
2018-07-17T00:37:07.652Z,99511.14
2018-07-17T00:39:39.355Z,99507.59
2018-07-17T00:42:14.640Z,99514.41
2018-07-17T00:44:46.697Z,99508.42
2018-07-17T00:47:19.157Z,99503.50
2018-07-17T00:49:54.353Z,99513.34
2018-07-17T00:52:27.876Z,99509.02
2018-07-17T00:55:00.209Z,99496.98
2018-07-17T00:57:32.495Z,99496.45
2018-07-17T01:00:09.258Z,99501.07
2018-07-17T01:02:45.724Z,99513.56
2018-07-17T01:05:23.095Z,99511.61
2018-07-17T01:08:00.654Z,99516.24
2018-07-17T01:10:37.051Z,99515.91
2018-07-17T01:13:12.591Z,99513.41
2018-07-17T01:15:44.983Z,99509.89
2018-07-17T01:18:18.466Z,99512.92
2018-07-17T01:20:50.499Z,99512.09
2018-07-17T01:23:21.992Z,99509.38
2018-07-17T01:25:54.702Z,99511.78
2018-07-17T01:28:27.510Z,99508.16
2018-07-17T01:30:58.745Z,99517.67
2018-07-17T01:33:29.917Z,99502.58
2018-07-17T01:36:01.622Z,99514.51
2018-07-17T01:38:32.961Z,99509.31
2018-07-17T01:41:05.768Z,99512.61
2018-07-17T01:43:37.083Z,99513.17
2018-07-17T01:46:08.274Z,99516.43
2018-07-17T01:48:39.978Z,99517.92
2018-07-17T01:51:11.220Z,99528.48
2018-07-17T01:53:42.399Z,99521.22
2018-07-17T01:56:13.885Z,99524.41
2018-07-17T01:58:44.150Z,99521.33
2018-07-17T02:02:22.418Z,99527.73
2018-07-17T02:04:53.884Z,99526.73
2018-07-17T02:07:28.505Z,99529.65
2018-07-17T02:10:00.151Z,99527.39
2018-07-17T02:12:31.715Z,99529.82
2018-07-17T02:15:06.370Z,99528.12
2018-07-17T02:17:37.568Z,99525.66
2018-07-17T02:20:09.185Z,99525.69
2018-07-17T02:22:40.817Z,99524.52
2018-07-17T02:25:12.574Z,99525.34
2018-07-17T02:27:44.247Z,99519.45
2018-07-17T02:30:16.272Z,99509.96
2018-07-17T02:32:48.730Z,99525.50
2018-07-17T02:35:21.642Z,99521.42
2018-07-17T02:37:54.005Z,99518.09
2018-07-17T02:40:26.110Z,99518.48
2018-07-17T02:42:58.368Z,99512.27
2018-07-17T02:45:29.539Z,99514.09
2018-07-17T02:48:02.016Z,99520.34
2018-07-17T02:50:33.541Z,99520.87
2018-07-17T02:53:05.765Z,99520.52
2018-07-17T02:55:42.217Z,99494.02
2018-07-17T02:58:16.965Z,99513.81
2018-07-17T03:00:49.062Z,99513.69
2018-07-17T03:03:21.445Z,99511.96
2018-07-17T03:05:53.649Z,99518.78
2018-07-17T03:08:24.982Z,99518.30
2018-07-17T03:10:56.162Z,99513.32
2018-07-17T03:13:28.247Z,99520.13
2018-07-17T03:15:59.428Z,99523.39
2018-07-17T03:18:31.536Z,99541.28
2018-07-17T03:21:01.868Z,99536.01
2018-07-17T03:23:33.081Z,99541.60
2018-07-17T03:26:03.825Z,99540.00
2018-07-17T03:28:34.953Z,99546.80
2018-07-17T03:31:06.165Z,99541.34
2018-07-17T03:33:37.706Z,99530.73
2018-07-17T03:36:10.683Z,99543.06
2018-07-17T03:38:40.981Z,99543.66
2018-07-17T03:41:14.885Z,99550.28
2018-07-17T03:43:47.197Z,99550.84
2018-07-17T03:46:18.548Z,99551.33
2018-07-17T03:48:50.610Z,99542.92
2018-07-17T03:51:22.501Z,99548.08
2018-07-17T03:53:53.117Z,99549.56
2018-07-17T03:56:23.700Z,99554.25
2018-07-17T03:58:55.809Z,99547.03
2018-07-17T04:01:27.333Z,99549.34
2018-07-17T04:03:58.540Z,99553.11
2018-07-17T04:06:31.022Z,99551.45
2018-07-17T04:09:08.090Z,99550.83
2018-07-17T04:11:39.724Z,99557.54
2018-07-17T04:14:12.649Z,99550.78
2018-07-17T04:16:50.965Z,99559.70
2018-07-17T04:19:24.481Z,99555.30
2018-07-17T04:21:57.224Z,99561.97
2018-07-17T04:24:28.456Z,99558.54
2018-07-17T04:26:59.784Z,99572.23
2018-07-17T04:29:30.985Z,99563.97
2018-07-17T04:32:02.478Z,99563.14
2018-07-17T04:34:33.451Z,99566.19
2018-07-17T04:37:06.619Z,99570.00
2018-07-17T04:39:40.561Z,99577.22
2018-07-17T04:42:10.869Z,99579.45
2018-07-17T04:44:49.232Z,99582.23
2018-07-17T04:47:21.657Z,99580.47
2018-07-17T04:49:54.199Z,99578.97
2018-07-17T04:52:31.032Z,99590.04
2018-07-17T04:55:03.639Z,99589.15
2018-07-17T04:57:35.815Z,99593.75
2018-07-17T05:00:11.211Z,99592.84
2018-07-17T05:02:47.205Z,99597.08
2018-07-17T05:05:19.696Z,99599.14
2018-07-17T05:07:51.813Z,99592.94
2018-07-17T05:10:23.977Z,99601.30
2018-07-17T05:13:00.578Z,99604.05
2018-07-17T05:15:34.312Z,99603.13
2018-07-17T05:18:06.908Z,99608.80
2018-07-17T05:20:39.930Z,99612.55
2018-07-17T05:23:13.475Z,99616.10
2018-07-17T05:25:45.493Z,99618.14
2018-07-17T05:28:16.224Z,99619.26
2018-07-17T05:30:50.911Z,99615.03
2018-07-17T05:33:24.010Z,99618.53
2018-07-17T05:35:59.043Z,99615.28
2018-07-17T05:38:31.196Z,99616.96
2018-07-17T05:41:03.407Z,99621.69
2018-07-17T05:43:34.693Z,99621.61
2018-07-17T05:46:06.372Z,99619.03
2018-07-17T05:49:00.157Z,99623.42
2018-07-17T05:51:32.670Z,99613.69
2018-07-17T05:54:05.162Z,99617.76
2018-07-17T05:56:35.771Z,99624.33
2018-07-17T05:59:06.096Z,99629.25
2018-07-17T06:01:36.868Z,99622.16
2018-07-17T06:04:07.077Z,99626.66
2018-07-17T06:06:39.881Z,99628.73
2018-07-17T06:09:11.251Z,99626.89
2018-07-17T06:11:42.552Z,99625.40
2018-07-17T06:14:13.884Z,99623.64
2018-07-17T06:16:44.177Z,99629.56
2018-07-17T06:19:17.721Z,99629.11
2018-07-17T06:21:48.805Z,99635.72
2018-07-17T06:24:19.958Z,99632.85
2018-07-17T06:27:03.631Z,99617.63
2018-07-17T06:29:34.097Z,99634.31
2018-07-17T06:32:05.474Z,99638.98
2018-07-17T06:34:35.804Z,99637.80
2018-07-17T06:37:09.496Z,99648.72
2018-07-17T06:39:41.016Z,99649.34
2018-07-17T06:42:12.442Z,99655.45
2018-07-17T06:44:42.898Z,99655.14
2018-07-17T06:47:13.988Z,99652.62
2018-07-17T06:49:48.080Z,99650.02
2018-07-17T06:52:21.585Z,99656.31
2018-07-17T06:54:58.464Z,99649.36
2018-07-17T06:57:36.214Z,99645.16
2018-07-17T07:00:10.867Z,99642.02
2018-07-17T07:02:42.659Z,99629.93
2018-07-17T07:05:13.252Z,99630.94
2018-07-17T07:07:50.121Z,99649.52
2018-07-17T07:10:21.349Z,99650.22
2018-07-17T07:12:55.028Z,99642.94
2018-07-17T07:15:26.317Z,99643.18
2018-07-17T07:17:59.755Z,99645.23
2018-07-17T07:20:30.375Z,99632.30
2018-07-17T07:23:00.729Z,99650.91
2018-07-17T07:25:32.253Z,99648.33
2018-07-17T07:28:06.491Z,99634.35
2018-07-17T07:30:36.881Z,99641.30
2018-07-17T07:33:11.042Z,99640.96
2018-07-17T07:35:42.511Z,99643.21
2018-07-17T07:38:13.680Z,99633.25
2018-07-17T07:40:45.217Z,99643.63
2018-07-17T07:43:16.788Z,99639.81
2018-07-17T07:45:48.084Z,99640.81
2018-07-17T07:48:20.641Z,99632.19
2018-07-17T07:50:55.135Z,99646.12
2018-07-17T07:53:28.677Z,99634.30
2018-07-17T07:56:02.586Z,99639.02
2018-07-17T07:58:37.349Z,99640.98
2018-07-17T08:01:09.109Z,99638.06
2018-07-17T08:03:43.485Z,99646.18
2018-07-17T08:06:14.806Z,99651.75
2018-07-17T08:08:47.228Z,99645.38
2018-07-17T08:11:36.058Z,99640.45
2018-07-17T08:14:08.917Z,99643.87
2018-07-17T08:16:40.555Z,99647.72
2018-07-17T08:22:12.275Z,99650.23
2018-07-17T08:24:45.438Z,99648.34
2018-07-17T08:27:18.837Z,99646.66
2018-07-17T08:29:54.799Z,99642.80
2018-07-17T08:32:29.188Z,99639.56
2018-07-17T08:35:10.061Z,99640.12
2018-07-17T08:37:41.421Z,99640.00
2018-07-17T08:40:13.943Z,99633.88
2018-07-17T08:42:55.944Z,99643.35
2018-07-17T08:45:30.821Z,99644.39
2018-07-17T08:48:04.749Z,99646.77
2018-07-17T08:50:37.864Z,99646.13
2018-07-17T08:53:15.536Z,99647.84
2018-07-17T08:55:50.729Z,99650.74
2018-07-17T08:58:23.335Z,99647.09
2018-07-17T09:00:54.745Z,99645.84
2018-07-17T09:03:32.541Z,99644.38
2018-07-17T09:06:05.535Z,99647.70
2018-07-17T09:08:39.232Z,99642.72
2018-07-17T09:11:11.409Z,99647.92
2018-07-17T09:13:43.908Z,99654.09
2018-07-17T09:18:54.979Z,99645.76
2018-07-17T09:21:26.285Z,99647.75
2018-07-17T09:24:00.560Z,99649.87
2018-07-17T09:26:33.240Z,99650.55
2018-07-17T09:29:06.352Z,99641.80
2018-07-17T09:31:39.351Z,99650.72
2018-07-17T09:34:12.798Z,99649.54
2018-07-17T09:36:45.827Z,99649.66
2018-07-17T09:39:17.097Z,99646.09
2018-07-17T09:41:49.235Z,99651.84
2018-07-17T09:44:24.017Z,99648.75
2018-07-17T09:46:59.788Z,99641.24
2018-07-17T09:49:31.840Z,99649.00
2018-07-17T09:52:05.609Z,99645.52
2018-07-17T09:54:38.532Z,99642.98
2018-07-17T09:57:15.345Z,99642.09
2018-07-17T09:59:48.370Z,99635.85
2018-07-17T10:02:26.211Z,99637.84
2018-07-17T10:05:00.886Z,99633.09
2018-07-17T10:07:36.603Z,99637.27
2018-07-17T10:10:15.425Z,99644.61
2018-07-17T10:12:51.355Z,99646.88
2018-07-17T10:15:26.063Z,99640.95
2018-07-17T10:18:00.020Z,99642.36
2018-07-17T10:20:32.583Z,99627.45
2018-07-17T10:23:10.096Z,99610.09
2018-07-17T10:25:42.691Z,99648.70
2018-07-17T10:28:15.757Z,99644.36
2018-07-17T10:30:49.454Z,99634.86
2018-07-17T10:33:22.423Z,99646.62
2018-07-17T10:35:55.059Z,99645.64
2018-07-17T10:38:33.010Z,99642.67
2018-07-17T10:41:06.578Z,99647.88
2018-07-17T10:43:39.535Z,99639.05
2018-07-17T10:46:11.241Z,99637.26
2018-07-17T10:48:45.787Z,99637.23
2018-07-17T10:51:19.057Z,99636.27
2018-07-17T10:53:57.623Z,99633.03
2018-07-17T10:56:30.557Z,99623.73
2018-07-17T10:59:09.665Z,99621.15
2018-07-17T11:01:44.631Z,99617.21
2018-07-17T11:04:22.497Z,99613.92
2018-07-17T11:07:07.333Z,99604.98
2018-07-17T11:09:45.653Z,99608.37
2018-07-17T11:12:23.593Z,99601.88
2018-07-17T11:14:57.873Z,99604.58
2018-07-17T11:17:33.112Z,99599.58
2018-07-17T11:20:05.400Z,99613.55
2018-07-17T11:22:51.468Z,99606.92
2018-07-17T11:25:25.074Z,99608.98
2018-07-17T11:27:58.427Z,99598.55
2018-07-17T11:30:54.705Z,99590.42
2018-07-17T11:33:29.938Z,99611.70
2018-07-17T11:36:19.186Z,99600.35
2018-07-17T11:38:53.372Z,99589.44
2018-07-17T11:41:26.521Z,99597.92
2018-07-17T11:43:58.276Z,99601.64
2018-07-17T11:46:32.828Z,99592.05
2018-07-17T11:49:11.368Z,99584.98
2018-07-17T11:51:43.580Z,99591.88
2018-07-17T11:54:16.517Z,99595.60
2018-07-17T11:56:49.294Z,99589.33
2018-07-17T11:59:22.571Z,99588.44
2018-07-17T12:01:58.324Z,99592.58
2018-07-17T12:04:32.165Z,99592.42
2018-07-17T12:07:03.978Z,99596.64
2018-07-17T12:09:38.620Z,99597.94
2018-07-17T12:12:10.709Z,99600.03
2018-07-17T12:14:44.401Z,99588.39
2018-07-17T12:17:19.633Z,99587.14
2018-07-17T12:19:53.350Z,99592.77
2018-07-17T12:22:29.951Z,99589.23
2018-07-17T12:25:03.289Z,99594.30
2018-07-17T12:27:38.805Z,99593.80
2018-07-17T12:30:14.617Z,99595.03
2018-07-17T12:32:50.489Z,99593.44
2018-07-17T12:35:22.453Z,99596.72
2018-07-17T12:38:01.667Z,99599.59
2018-07-17T12:44:33.464Z,99587.79
2018-07-17T12:47:05.739Z,99584.49
2018-07-17T12:49:41.233Z,99579.33
2018-07-17T12:52:13.896Z,99583.94
2018-07-17T12:54:47.316Z,99580.42
2018-07-17T12:57:19.312Z,99584.78
2018-07-17T12:59:52.776Z,99582.81
2018-07-17T13:02:25.083Z,99581.48
2018-07-17T13:04:56.323Z,99585.67
2018-07-17T13:07:30.443Z,99588.80
2018-07-17T13:10:06.381Z,99576.25
2018-07-17T13:12:46.336Z,99575.66
2018-07-17T13:15:19.227Z,99576.44
2018-07-17T13:17:53.858Z,99576.07
2018-07-17T13:20:26.634Z,99572.98
2018-07-17T13:22:58.659Z,99564.77
2018-07-17T13:25:31.884Z,99569.81
2018-07-17T13:28:06.916Z,99563.20
2018-07-17T13:30:38.248Z,99567.81
2018-07-17T13:33:16.130Z,99571.11
2018-07-17T13:35:47.487Z,99571.74
2018-07-17T13:38:20.568Z,99570.02
2018-07-17T13:41:07.793Z,99563.16
2018-07-17T13:43:39.958Z,99573.80
2018-07-17T13:46:17.279Z,99571.59
2018-07-17T13:48:52.211Z,99562.59
2018-07-17T13:51:24.792Z,99565.00
2018-07-17T13:53:57.675Z,99571.08
2018-07-17T13:56:40.327Z,99577.61
2018-07-17T13:59:13.835Z,99573.06
2018-07-17T14:01:46.050Z,99569.23
2018-07-17T14:04:18.001Z,99564.58
2018-07-17T14:06:50.566Z,99559.32
2018-07-17T14:09:23.594Z,99556.91
2018-07-17T14:11:55.669Z,99558.37
2018-07-17T14:14:26.966Z,99550.38
2018-07-17T14:17:00.274Z,99531.11
2018-07-17T14:19:32.372Z,99550.27
2018-07-17T14:22:04.553Z,99552.13
2018-07-17T14:24:39.424Z,99547.26
2018-07-17T14:27:12.352Z,99554.02
2018-07-17T14:29:46.010Z,99548.76
2018-07-17T14:35:18.877Z,99560.00
2018-07-17T14:37:50.758Z,99555.62
2018-07-17T14:40:25.301Z,99558.64
2018-07-17T14:43:03.626Z,99557.37
2018-07-17T14:45:37.754Z,99565.95
2018-07-17T14:48:13.874Z,99559.59
2018-07-17T14:50:47.933Z,99565.56
2018-07-17T14:53:53.511Z,99558.74
2018-07-17T14:56:27.418Z,99560.17
2018-07-17T14:58:59.516Z,99571.73
2018-07-17T15:01:31.488Z,99567.66
2018-07-17T15:04:03.601Z,99572.59
2018-07-17T15:06:36.914Z,99571.33
2018-07-17T15:09:11.390Z,99573.92
2018-07-17T15:11:43.263Z,99563.63
2018-07-17T15:14:28.596Z,99559.20
2018-07-17T15:17:26.795Z,99552.51
2018-07-17T15:20:06.077Z,99549.22
2018-07-17T15:22:45.641Z,99555.47
2018-07-17T15:25:19.277Z,99556.51
2018-07-17T15:27:53.771Z,99562.45
2018-07-17T15:30:33.077Z,99564.77
2018-07-17T15:33:12.584Z,99559.95
2018-07-17T15:35:45.874Z,99573.03
2018-07-17T15:38:24.555Z,99575.84
2018-07-17T15:41:04.156Z,99583.52
2018-07-17T15:43:40.724Z,99582.39
2018-07-17T15:46:14.652Z,99565.69
2018-07-17T15:48:57.980Z,99584.63
2018-07-17T15:54:16.506Z,99571.50
2018-07-17T15:56:51.747Z,99568.17
2018-07-17T15:59:30.010Z,99583.62
2018-07-17T16:04:47.581Z,99587.50
2018-07-17T16:07:59.217Z,99589.21
2018-07-17T16:10:40.343Z,99584.79
2018-07-17T16:13:20.302Z,99586.48
2018-07-17T16:16:02.522Z,99597.25
2018-07-17T16:18:40.830Z,99595.09
2018-07-17T16:21:16.703Z,99594.05
2018-07-17T16:24:21.283Z,99549.65
2018-07-17T16:29:11.919Z,99589.86
2018-07-17T16:31:52.766Z,99596.37
2018-07-17T16:34:28.673Z,99587.28
2018-07-17T16:37:03.490Z,99589.59
2018-07-17T16:39:36.331Z,99586.22
2018-07-17T16:45:04.187Z,99592.65
2018-07-17T16:53:45.589Z,99590.54
2018-07-17T16:56:33.415Z,99580.78
2018-07-17T16:59:12.104Z,99584.27
2018-07-17T17:04:52.891Z,99582.48
2018-07-17T17:07:29.326Z,99592.97
2018-07-17T17:10:01.795Z,99589.23
2018-07-17T17:12:41.573Z,99588.63
2018-07-17T17:15:21.463Z,99586.23
2018-07-17T17:17:59.294Z,99597.41
2018-07-17T17:20:33.272Z,99532.16
2018-07-17T17:23:07.803Z,99577.77
2018-07-17T17:25:40.992Z,99594.55
2018-07-17T17:28:15.424Z,99609.49
2018-07-17T17:30:51.270Z,99608.10
2018-07-17T17:33:27.683Z,99612.16
2018-07-17T17:39:11.812Z,99612.64
2018-07-17T17:41:47.253Z,99619.48
2018-07-17T17:44:22.377Z,99615.91
2018-07-17T17:46:59.353Z,99618.82
2018-07-17T17:49:36.498Z,99612.68
2018-07-17T17:52:11.147Z,99618.70
2018-07-17T17:54:45.722Z,99621.77
2018-07-17T17:57:23.412Z,99620.43
2018-07-17T17:59:56.469Z,99620.45
2018-07-17T18:02:31.656Z,99631.70
2018-07-17T18:05:10.265Z,99631.52
2018-07-17T18:07:48.174Z,99629.84
2018-07-17T18:10:24.433Z,99630.04
2018-07-17T18:13:00.766Z,99631.25
2018-07-17T18:15:37.127Z,99629.31
2018-07-17T18:18:13.128Z,99642.98
2018-07-17T18:20:52.052Z,99639.26
2018-07-17T18:23:27.903Z,99639.41
2018-07-17T18:26:02.551Z,99635.19
2018-07-17T18:28:37.797Z,99646.08
2018-07-17T18:31:11.119Z,99658.53
2018-07-17T18:33:42.393Z,99662.03
2018-07-17T18:36:15.390Z,99658.16
2018-07-17T18:38:49.450Z,99661.09
2018-07-17T18:41:22.544Z,99656.02
2018-07-17T18:44:13.628Z,99667.60
2018-07-17T18:46:51.243Z,99662.40
2018-07-17T18:49:38.282Z,99668.54
2018-07-17T18:58:55.734Z,99669.43
2018-07-17T19:01:33.046Z,99664.57
2018-07-17T19:04:09.032Z,99677.30
2018-07-17T19:09:18.865Z,99690.78
2018-07-17T19:17:17.011Z,99697.53
2018-07-17T19:19:52.275Z,99696.48
2018-07-17T19:22:38.406Z,99701.65
2018-07-17T19:25:27.250Z,99629.38
2018-07-17T19:28:10.574Z,99709.55
2018-07-17T19:31:09.271Z,99719.53
2018-07-17T19:33:47.569Z,99722.01
2018-07-17T19:36:27.724Z,99730.45
2018-07-17T19:39:03.228Z,99735.77
2018-07-17T19:41:39.683Z,99740.03
2018-07-17T19:44:18.445Z,99735.59
2018-07-17T19:46:52.473Z,99743.87
2018-07-17T19:49:31.698Z,99747.97
2018-07-17T19:52:06.361Z,99743.52
2018-07-17T19:54:48.595Z,99743.53
2018-07-17T19:57:47.352Z,99746.40
2018-07-17T20:00:36.604Z,99748.62
2018-07-17T20:03:28.896Z,99749.04
2018-07-17T20:06:05.202Z,99760.00
2018-07-17T20:08:40.946Z,99757.70
2018-07-17T20:11:31.594Z,99761.31
2018-07-17T20:14:06.358Z,99755.17
2018-07-17T20:16:40.302Z,99753.19
2018-07-17T20:21:58.635Z,99757.97
2018-07-17T20:24:36.270Z,99754.72
2018-07-17T20:27:15.439Z,99759.11
2018-07-17T20:29:49.853Z,99754.49
2018-07-17T20:32:24.443Z,99753.52
2018-07-17T20:35:03.472Z,99758.64
2018-07-17T20:37:45.102Z,99755.58
2018-07-17T20:40:19.070Z,99761.15
2018-07-17T20:42:56.831Z,99749.44
2018-07-17T20:45:37.484Z,99763.08
2018-07-17T20:48:17.475Z,99750.36
2018-07-17T20:50:59.457Z,99759.78
2018-07-17T20:55:47.520Z,99752.60
2018-07-17T20:58:23.358Z,99764.42
2018-07-17T21:01:02.494Z,99753.42
2018-07-17T21:03:37.687Z,99755.11
2018-07-17T21:06:14.539Z,99754.28
2018-07-17T21:08:52.190Z,99762.53
2018-07-17T21:11:28.433Z,99754.84
2018-07-17T21:14:02.576Z,99753.21
2018-07-17T21:16:44.265Z,99752.48
2018-07-17T21:19:20.272Z,99764.98
2018-07-17T21:21:59.645Z,99763.62
2018-07-17T21:24:41.337Z,99773.16
2018-07-17T21:27:35.323Z,99748.61
2018-07-17T21:30:29.754Z,99768.66
2018-07-17T21:33:10.251Z,99762.98
2018-07-17T21:35:48.835Z,99766.98
2018-07-17T21:38:28.187Z,99765.60
2018-07-17T21:51:28.301Z,99756.41
2018-07-17T21:54:08.258Z,99763.41
2018-07-17T21:56:57.417Z,99764.41
2018-07-17T21:59:30.634Z,99750.77
2018-07-17T22:02:06.648Z,99760.97
2018-07-17T22:04:50.351Z,99760.53
2018-07-17T22:07:43.691Z,99763.03
2018-07-17T22:10:18.471Z,99766.02
2018-07-17T22:12:59.266Z,99774.11
2018-07-17T22:15:50.485Z,99766.70
2018-07-17T22:18:34.371Z,99772.47
2018-07-17T22:21:21.452Z,99762.40
2018-07-17T22:24:04.641Z,99769.72
2018-07-17T22:26:38.621Z,99778.84
2018-07-17T22:29:22.241Z,99782.35
2018-07-17T22:31:59.645Z,99781.04
2018-07-17T22:34:41.266Z,99784.27
2018-07-17T22:37:19.802Z,99784.15
2018-07-17T22:39:55.108Z,99790.53
2018-07-17T22:42:29.608Z,99794.70
2018-07-17T22:45:08.655Z,99800.75
2018-07-17T22:47:42.360Z,99794.62
2018-07-17T22:50:20.369Z,99795.47
2018-07-17T22:52:54.303Z,99795.95
2018-07-17T22:55:30.090Z,99797.42
2018-07-17T22:58:04.287Z,99803.00
2018-07-17T23:00:39.115Z,99802.67
2018-07-17T23:03:12.220Z,99811.24
2018-07-17T23:05:46.992Z,99804.41
2018-07-17T23:08:23.758Z,99811.42
2018-07-17T23:10:59.194Z,99812.65
2018-07-17T23:13:32.461Z,99809.48
2018-07-17T23:16:09.262Z,99811.92
2018-07-17T23:18:50.573Z,99815.25
2018-07-17T23:21:25.965Z,99811.47
2018-07-17T23:24:05.089Z,99818.13
2018-07-17T23:26:38.986Z,99821.13
2018-07-17T23:29:12.518Z,99820.70
2018-07-17T23:31:45.975Z,99818.20
2018-07-17T23:34:23.047Z,99821.11
2018-07-17T23:36:57.449Z,99819.06
2018-07-17T23:39:34.501Z,99823.22
2018-07-17T23:42:07.545Z,99761.55
2018-07-17T23:44:42.732Z,99827.36
2018-07-17T23:47:15.207Z,99824.61
2018-07-17T23:49:55.401Z,99823.31
2018-07-17T23:52:27.542Z,99830.78
2018-07-17T23:55:03.426Z,99832.71
2018-07-17T23:57:39.031Z,99836.81
